sensor_id;sensor_type;location;lat;lon;timestamp;pressure;altitude;pressure_sealevel;temperature;humidity
7962;BME280;4026;43.652;24.906;2024-02-14T00:00:04;98794.72;;;7.19;100.00
7962;BME280;4026;43.652;24.906;2024-02-14T00:02:31;98800.41;;;7.23;100.00
7962;BME280;4026;43.652;24.906;2024-02-14T00:04:58;98796.34;;;7.20;100.00
7962;BME280;4026;43.652;24.906;2024-02-14T00:07:25;98801.94;;;7.25;100.00
7962;BME280;4026;43.652;24.906;2024-02-14T00:09:52;98812.59;;;7.18;100.00
7962;BME280;4026;43.652;24.906;2024-02-14T00:12:20;98812.16;;;7.11;100.00
7962;BME280;4026;43.652;24.906;2024-02-14T00:14:46;98814.19;;;7.06;100.00
7962;BME280;4026;43.652;24.906;2024-02-14T00:17:15;98813.75;;;6.99;100.00
7962;BME280;4026;43.652;24.906;2024-02-14T00:19:42;98815.00;;;7.07;100.00
7962;BME280;4026;43.652;24.906;2024-02-14T00:22:09;98818.94;;;7.25;100.00
7962;BME280;4026;43.652;24.906;2024-02-14T00:24:35;98828.81;;;7.30;100.00
7962;BME280;4026;43.652;24.906;2024-02-14T00:27:03;98821.03;;;7.45;100.00
7962;BME280;4026;43.652;24.906;2024-02-14T00:29:30;98831.03;;;7.48;100.00
7962;BME280;4026;43.652;24.906;2024-02-14T00:31:59;98835.50;;;7.58;100.00
7962;BME280;4026;43.652;24.906;2024-02-14T00:34:27;98836.44;;;7.57;100.00
7962;BME280;4026;43.652;24.906;2024-02-14T00:36:54;98836.63;;;7.54;100.00
7962;BME280;4026;43.652;24.906;2024-02-14T00:39:21;98842.94;;;7.48;100.00
7962;BME280;4026;43.652;24.906;2024-02-14T00:41:48;98834.56;;;7.46;100.00
7962;BME280;4026;43.652;24.906;2024-02-14T00:44:15;98842.81;;;7.49;100.00
7962;BME280;4026;43.652;24.906;2024-02-14T00:46:44;98853.19;;;7.46;100.00
7962;BME280;4026;43.652;24.906;2024-02-14T00:49:11;98853.38;;;7.43;100.00
7962;BME280;4026;43.652;24.906;2024-02-14T00:51:40;98853.72;;;7.24;100.00
7962;BME280;4026;43.652;24.906;2024-02-14T00:54:07;98851.00;;;7.28;100.00
7962;BME280;4026;43.652;24.906;2024-02-14T00:56:34;98855.78;;;7.32;100.00
7962;BME280;4026;43.652;24.906;2024-02-14T00:59:01;98851.84;;;7.14;100.00
7962;BME280;4026;43.652;24.906;2024-02-14T01:01:28;98851.66;;;7.17;100.00
7962;BME280;4026;43.652;24.906;2024-02-14T01:03:55;98853.28;;;7.18;100.00
7962;BME280;4026;43.652;24.906;2024-02-14T01:06:21;98849.09;;;7.17;100.00
7962;BME280;4026;43.652;24.906;2024-02-14T01:08:51;98848.56;;;7.12;100.00
7962;BME280;4026;43.652;24.906;2024-02-14T01:11:18;98850.22;;;7.13;100.00
7962;BME280;4026;43.652;24.906;2024-02-14T01:13:45;98851.13;;;7.12;100.00
7962;BME280;4026;43.652;24.906;2024-02-14T01:16:12;98862.59;;;7.05;100.00
7962;BME280;4026;43.652;24.906;2024-02-14T01:18:39;98863.63;;;7.15;100.00
7962;BME280;4026;43.652;24.906;2024-02-14T01:21:06;98861.59;;;7.07;100.00
7962;BME280;4026;43.652;24.906;2024-02-14T01:23:33;98858.56;;;7.15;100.00
7962;BME280;4026;43.652;24.906;2024-02-14T01:26:02;98864.25;;;7.18;100.00
7962;BME280;4026;43.652;24.906;2024-02-14T01:28:29;98869.78;;;7.25;100.00
7962;BME280;4026;43.652;24.906;2024-02-14T01:30:56;98866.00;;;7.18;100.00
7962;BME280;4026;43.652;24.906;2024-02-14T01:33:23;98863.31;;;7.34;100.00
7962;BME280;4026;43.652;24.906;2024-02-14T01:35:50;98862.44;;;7.20;100.00
7962;BME280;4026;43.652;24.906;2024-02-14T01:38:17;98862.94;;;7.13;100.00
7962;BME280;4026;43.652;24.906;2024-02-14T01:40:44;98861.50;;;6.94;100.00
7962;BME280;4026;43.652;24.906;2024-02-14T01:43:13;98863.28;;;7.07;100.00
7962;BME280;4026;43.652;24.906;2024-02-14T01:45:40;98871.22;;;6.88;100.00
7962;BME280;4026;43.652;24.906;2024-02-14T01:48:07;98867.59;;;6.92;100.00
7962;BME280;4026;43.652;24.906;2024-02-14T01:50:35;98871.84;;;6.91;100.00
7962;BME280;4026;43.652;24.906;2024-02-14T01:53:02;98872.59;;;6.79;100.00
7962;BME280;4026;43.652;24.906;2024-02-14T01:55:30;98878.59;;;6.92;100.00
7962;BME280;4026;43.652;24.906;2024-02-14T01:57:57;98878.47;;;6.94;100.00
7962;BME280;4026;43.652;24.906;2024-02-14T02:00:26;98880.97;;;6.81;100.00
7962;BME280;4026;43.652;24.906;2024-02-14T02:02:54;98887.22;;;6.90;100.00
7962;BME280;4026;43.652;24.906;2024-02-14T02:05:21;98881.56;;;6.99;100.00
7962;BME280;4026;43.652;24.906;2024-02-14T02:07:48;98891.81;;;6.97;100.00
7962;BME280;4026;43.652;24.906;2024-02-14T02:10:15;98894.53;;;6.94;100.00
7962;BME280;4026;43.652;24.906;2024-02-14T02:12:42;98893.84;;;6.92;100.00
7962;BME280;4026;43.652;24.906;2024-02-14T02:15:09;98899.25;;;7.00;100.00
7962;BME280;4026;43.652;24.906;2024-02-14T02:17:41;98897.06;;;7.09;100.00
7962;BME280;4026;43.652;24.906;2024-02-14T02:20:11;98906.50;;;7.07;100.00
7962;BME280;4026;43.652;24.906;2024-02-14T02:22:45;98913.78;;;6.98;100.00
7962;BME280;4026;43.652;24.906;2024-02-14T02:25:12;98920.50;;;6.99;100.00
7962;BME280;4026;43.652;24.906;2024-02-14T02:27:39;98917.03;;;7.00;100.00
7962;BME280;4026;43.652;24.906;2024-02-14T02:30:07;98926.66;;;7.10;100.00
7962;BME280;4026;43.652;24.906;2024-02-14T02:32:35;98929.75;;;7.15;100.00
7962;BME280;4026;43.652;24.906;2024-02-14T02:35:03;98937.19;;;7.03;100.00
7962;BME280;4026;43.652;24.906;2024-02-14T02:37:30;98934.81;;;7.15;100.00
7962;BME280;4026;43.652;24.906;2024-02-14T02:39:58;98939.91;;;7.15;100.00
7962;BME280;4026;43.652;24.906;2024-02-14T02:42:25;98935.91;;;7.25;100.00
7962;BME280;4026;43.652;24.906;2024-02-14T02:44:52;98946.47;;;7.19;100.00
7962;BME280;4026;43.652;24.906;2024-02-14T02:47:19;98941.91;;;7.10;100.00
7962;BME280;4026;43.652;24.906;2024-02-14T02:49:46;98946.47;;;7.05;100.00
7962;BME280;4026;43.652;24.906;2024-02-14T02:52:13;98946.47;;;7.19;100.00
7962;BME280;4026;43.652;24.906;2024-02-14T02:54:40;98961.00;;;7.02;100.00
7962;BME280;4026;43.652;24.906;2024-02-14T02:57:10;98960.81;;;7.06;100.00
7962;BME280;4026;43.652;24.906;2024-02-14T02:59:37;98971.59;;;7.09;100.00
7962;BME280;4026;43.652;24.906;2024-02-14T03:02:08;98977.06;;;7.03;100.00
7962;BME280;4026;43.652;24.906;2024-02-14T03:04:37;98985.13;;;7.10;100.00
7962;BME280;4026;43.652;24.906;2024-02-14T03:07:04;98993.47;;;7.26;100.00
7962;BME280;4026;43.652;24.906;2024-02-14T03:09:32;99003.09;;;7.35;100.00
7962;BME280;4026;43.652;24.906;2024-02-14T03:11:59;99001.09;;;7.40;100.00
7962;BME280;4026;43.652;24.906;2024-02-14T03:14:29;98999.72;;;7.49;100.00
7962;BME280;4026;43.652;24.906;2024-02-14T03:16:58;99000.97;;;7.56;100.00
7962;BME280;4026;43.652;24.906;2024-02-14T03:19:24;99013.41;;;7.61;100.00
7962;BME280;4026;43.652;24.906;2024-02-14T03:21:52;99005.06;;;7.59;100.00
7962;BME280;4026;43.652;24.906;2024-02-14T03:24:19;99012.88;;;7.41;100.00
7962;BME280;4026;43.652;24.906;2024-02-14T03:26:46;99012.19;;;7.25;100.00
7962;BME280;4026;43.652;24.906;2024-02-14T03:29:13;99011.09;;;7.29;100.00
7962;BME280;4026;43.652;24.906;2024-02-14T03:31:43;99020.91;;;7.21;100.00
7962;BME280;4026;43.652;24.906;2024-02-14T03:34:10;99019.09;;;7.09;100.00
7962;BME280;4026;43.652;24.906;2024-02-14T03:36:37;99014.38;;;7.17;100.00
7962;BME280;4026;43.652;24.906;2024-02-14T03:39:05;99018.91;;;6.97;100.00
7962;BME280;4026;43.652;24.906;2024-02-14T03:41:32;99024.34;;;7.06;100.00
7962;BME280;4026;43.652;24.906;2024-02-14T03:43:59;99029.25;;;6.94;100.00
7962;BME280;4026;43.652;24.906;2024-02-14T03:46:26;99031.97;;;6.91;100.00
7962;BME280;4026;43.652;24.906;2024-02-14T03:48:54;99029.78;;;6.99;100.00
7962;BME280;4026;43.652;24.906;2024-02-14T03:51:23;99041.41;;;7.18;100.00
7962;BME280;4026;43.652;24.906;2024-02-14T03:53:50;99032.16;;;7.17;100.00
7962;BME280;4026;43.652;24.906;2024-02-14T03:56:17;99040.53;;;7.05;100.00
7962;BME280;4026;43.652;24.906;2024-02-14T03:58:44;99037.88;;;7.20;100.00
7962;BME280;4026;43.652;24.906;2024-02-14T04:01:12;99042.34;;;7.31;100.00
7962;BME280;4026;43.652;24.906;2024-02-14T04:03:39;99042.34;;;7.31;100.00
7962;BME280;4026;43.652;24.906;2024-02-14T04:06:07;99038.31;;;7.27;100.00
7962;BME280;4026;43.652;24.906;2024-02-14T04:08:34;99048.16;;;7.33;100.00
7962;BME280;4026;43.652;24.906;2024-02-14T04:11:01;99040.53;;;7.33;100.00
7962;BME280;4026;43.652;24.906;2024-02-14T04:13:28;99053.97;;;7.35;100.00
7962;BME280;4026;43.652;24.906;2024-02-14T04:15:54;99057.03;;;7.12;100.00
7962;BME280;4026;43.652;24.906;2024-02-14T04:18:21;99050.69;;;7.05;100.00
7962;BME280;4026;43.652;24.906;2024-02-14T04:20:48;99052.94;;;7.09;100.00
7962;BME280;4026;43.652;24.906;2024-02-14T04:23:16;99055.69;;;7.20;100.00
7962;BME280;4026;43.652;24.906;2024-02-14T04:25:43;99063.25;;;7.22;100.00
7962;BME280;4026;43.652;24.906;2024-02-14T04:28:10;99058.69;;;7.13;100.00
7962;BME280;4026;43.652;24.906;2024-02-14T04:30:37;99056.41;;;7.08;100.00
7962;BME280;4026;43.652;24.906;2024-02-14T04:33:04;99057.03;;;7.12;100.00
7962;BME280;4026;43.652;24.906;2024-02-14T04:35:33;99067.50;;;7.07;100.00
7962;BME280;4026;43.652;24.906;2024-02-14T04:38:00;99069.94;;;7.09;100.00
7962;BME280;4026;43.652;24.906;2024-02-14T04:40:29;99075.19;;;7.06;100.00
7962;BME280;4026;43.652;24.906;2024-02-14T04:42:56;99081.19;;;7.05;100.00
7962;BME280;4026;43.652;24.906;2024-02-14T04:45:23;99087.44;;;6.99;100.00
7962;BME280;4026;43.652;24.906;2024-02-14T04:47:50;99091.72;;;6.98;100.00
7962;BME280;4026;43.652;24.906;2024-02-14T04:50:16;99092.06;;;6.92;100.00
7962;BME280;4026;43.652;24.906;2024-02-14T04:52:44;99095.63;;;7.04;100.00
7962;BME280;4026;43.652;24.906;2024-02-14T04:55:11;99102.97;;;7.09;100.00
7962;BME280;4026;43.652;24.906;2024-02-14T04:57:39;99107.34;;;7.21;100.00
7962;BME280;4026;43.652;24.906;2024-02-14T05:00:07;99107.00;;;7.27;100.00
7962;BME280;4026;43.652;24.906;2024-02-14T05:02:35;99103.75;;;7.25;100.00
7962;BME280;4026;43.652;24.906;2024-02-14T05:05:02;99116.63;;;7.22;100.00
7962;BME280;4026;43.652;24.906;2024-02-14T05:07:29;99111.09;;;7.30;100.00
7962;BME280;4026;43.652;24.906;2024-02-14T05:09:56;99106.09;;;7.28;100.00
7962;BME280;4026;43.652;24.906;2024-02-14T05:12:23;99103.75;;;7.25;100.00
7962;BME280;4026;43.652;24.906;2024-02-14T05:14:52;99114.72;;;7.25;100.00
7962;BME280;4026;43.652;24.906;2024-02-14T05:17:18;99112.25;;;7.24;100.00
7962;BME280;4026;43.652;24.906;2024-02-14T05:19:45;99117.88;;;7.15;100.00
7962;BME280;4026;43.652;24.906;2024-02-14T05:22:12;99128.22;;;7.12;100.00
7962;BME280;4026;43.652;24.906;2024-02-14T05:24:39;99128.16;;;7.13;100.00
7962;BME280;4026;43.652;24.906;2024-02-14T05:27:05;99131.16;;;7.20;100.00
7962;BME280;4026;43.652;24.906;2024-02-14T05:29:32;99130.19;;;7.07;100.00
7962;BME280;4026;43.652;24.906;2024-02-14T05:32:01;99129.00;;;6.98;100.00
7962;BME280;4026;43.652;24.906;2024-02-14T05:34:28;99130.88;;;7.10;100.00
7962;BME280;4026;43.652;24.906;2024-02-14T05:36:54;99135.84;;;7.12;100.00
7962;BME280;4026;43.652;24.906;2024-02-14T05:39:21;99141.69;;;7.14;100.00
7962;BME280;4026;43.652;24.906;2024-02-14T05:41:48;99147.94;;;7.08;100.00
7962;BME280;4026;43.652;24.906;2024-02-14T05:44:15;99152.78;;;6.97;100.00
7962;BME280;4026;43.652;24.906;2024-02-14T05:46:42;99163.72;;;6.83;100.00
7962;BME280;4026;43.652;24.906;2024-02-14T05:49:12;99177.22;;;6.99;100.00
7962;BME280;4026;43.652;24.906;2024-02-14T05:51:38;99176.38;;;6.69;100.00
7962;BME280;4026;43.652;24.906;2024-02-14T05:54:06;99184.91;;;6.68;100.00
7962;BME280;4026;43.652;24.906;2024-02-14T05:56:33;99175.50;;;6.70;100.00
7962;BME280;4026;43.652;24.906;2024-02-14T05:58:59;99172.78;;;6.73;100.00
7962;BME280;4026;43.652;24.906;2024-02-14T06:01:26;99184.22;;;6.80;100.00
7962;BME280;4026;43.652;24.906;2024-02-14T06:03:54;99196.38;;;6.75;100.00
7962;BME280;4026;43.652;24.906;2024-02-14T06:06:22;99199.34;;;6.67;100.00
7962;BME280;4026;43.652;24.906;2024-02-14T06:08:49;99210.97;;;6.71;100.00
7962;BME280;4026;43.652;24.906;2024-02-14T06:11:16;99202.59;;;6.85;100.00
7962;BME280;4026;43.652;24.906;2024-02-14T06:13:46;99203.91;;;6.92;100.00
7962;BME280;4026;43.652;24.906;2024-02-14T06:16:13;99202.59;;;6.85;100.00
7962;BME280;4026;43.652;24.906;2024-02-14T06:18:40;99201.59;;;6.88;100.00
7962;BME280;4026;43.652;24.906;2024-02-14T06:21:07;99211.59;;;6.91;100.00
7962;BME280;4026;43.652;24.906;2024-02-14T06:23:35;99218.59;;;6.71;100.00
7962;BME280;4026;43.652;24.906;2024-02-14T06:26:03;99223.13;;;6.66;100.00
7962;BME280;4026;43.652;24.906;2024-02-14T06:28:30;99223.44;;;6.76;100.00
7962;BME280;4026;43.652;24.906;2024-02-14T06:30:57;99221.94;;;6.88;100.00
7962;BME280;4026;43.652;24.906;2024-02-14T06:33:24;99234.53;;;6.89;100.00
7962;BME280;4026;43.652;24.906;2024-02-14T06:35:50;99234.72;;;6.86;100.00
7962;BME280;4026;43.652;24.906;2024-02-14T06:38:17;99240.47;;;6.74;100.00
7962;BME280;4026;43.652;24.906;2024-02-14T06:40:45;99241.69;;;6.83;100.00
7962;BME280;4026;43.652;24.906;2024-02-14T06:43:12;99248.50;;;6.82;100.00
7962;BME280;4026;43.652;24.906;2024-02-14T06:45:39;99248.97;;;6.89;100.00
7962;BME280;4026;43.652;24.906;2024-02-14T06:48:07;99248.63;;;6.95;100.00
7962;BME280;4026;43.652;24.906;2024-02-14T06:50:34;99243.41;;;6.82;100.00
7962;BME280;4026;43.652;24.906;2024-02-14T06:53:01;99241.84;;;6.79;100.00
7962;BME280;4026;43.652;24.906;2024-02-14T06:55:28;99246.59;;;6.86;100.00
7962;BME280;4026;43.652;24.906;2024-02-14T06:57:58;99245.78;;;6.85;100.00
7962;BME280;4026;43.652;24.906;2024-02-14T07:00:25;99244.94;;;7.00;100.00
7962;BME280;4026;43.652;24.906;2024-02-14T07:02:53;99251.91;;;7.13;100.00
7962;BME280;4026;43.652;24.906;2024-02-14T07:05:20;99258.47;;;7.17;100.00
7962;BME280;4026;43.652;24.906;2024-02-14T07:07:47;99247.94;;;7.23;100.00
7962;BME280;4026;43.652;24.906;2024-02-14T07:10:14;99258.84;;;7.25;100.00
7962;BME280;4026;43.652;24.906;2024-02-14T07:12:40;99264.66;;;7.27;100.00
7962;BME280;4026;43.652;24.906;2024-02-14T07:15:08;99260.41;;;7.28;100.00
7962;BME280;4026;43.652;24.906;2024-02-14T07:17:35;99260.59;;;7.24;100.00
7962;BME280;4026;43.652;24.906;2024-02-14T07:20:02;99264.34;;;7.33;100.00
7962;BME280;4026;43.652;24.906;2024-02-14T07:22:29;99269.59;;;7.30;100.00
7962;BME280;4026;43.652;24.906;2024-02-14T07:24:56;99274.41;;;7.35;100.00
7962;BME280;4026;43.652;24.906;2024-02-14T07:27:23;99276.19;;;7.48;100.00
7962;BME280;4026;43.652;24.906;2024-02-14T07:29:50;99285.97;;;7.40;100.00
7962;BME280;4026;43.652;24.906;2024-02-14T07:32:18;99277.06;;;7.33;100.00
7962;BME280;4026;43.652;24.906;2024-02-14T07:34:45;99284.34;;;7.39;100.00
7962;BME280;4026;43.652;24.906;2024-02-14T07:37:12;99279.25;;;7.39;100.00
7962;BME280;4026;43.652;24.906;2024-02-14T07:39:40;99288.34;;;7.43;100.00
7962;BME280;4026;43.652;24.906;2024-02-14T07:42:07;99296.44;;;7.50;100.00
7962;BME280;4026;43.652;24.906;2024-02-14T07:44:34;99293.66;;;7.55;100.00
7962;BME280;4026;43.652;24.906;2024-02-14T07:47:01;99297.22;;;7.66;100.00
7962;BME280;4026;43.652;24.906;2024-02-14T07:49:30;99296.97;;;7.71;100.00
7962;BME280;4026;43.652;24.906;2024-02-14T07:51:57;99291.16;;;7.69;100.00
7962;BME280;4026;43.652;24.906;2024-02-14T07:54:23;99306.06;;;7.75;100.00
7962;BME280;4026;43.652;24.906;2024-02-14T07:56:50;99303.94;;;7.67;100.00
7962;BME280;4026;43.652;24.906;2024-02-14T07:59:17;99303.13;;;7.67;100.00
7962;BME280;4026;43.652;24.906;2024-02-14T08:01:45;99305.28;;;7.59;100.00
7962;BME280;4026;43.652;24.906;2024-02-14T08:04:12;99305.84;;;7.64;100.00
7962;BME280;4026;43.652;24.906;2024-02-14T08:06:40;99305.72;;;7.81;100.00
7962;BME280;4026;43.652;24.906;2024-02-14T08:09:07;99311.31;;;7.72;100.00
7962;BME280;4026;43.652;24.906;2024-02-14T08:11:35;99313.88;;;7.72;100.00
7962;BME280;4026;43.652;24.906;2024-02-14T08:14:02;99314.25;;;7.80;100.00
7962;BME280;4026;43.652;24.906;2024-02-14T08:16:30;99312.97;;;7.73;100.00
7962;BME280;4026;43.652;24.906;2024-02-14T08:18:57;99305.78;;;7.65;100.00
7962;BME280;4026;43.652;24.906;2024-02-14T08:21:25;99308.69;;;7.74;100.00
7962;BME280;4026;43.652;24.906;2024-02-14T08:23:53;99307.69;;;7.76;100.00
7962;BME280;4026;43.652;24.906;2024-02-14T08:26:20;99307.88;;;7.73;100.00
7962;BME280;4026;43.652;24.906;2024-02-14T08:28:48;99308.84;;;7.70;100.00
7962;BME280;4026;43.652;24.906;2024-02-14T08:31:15;99313.66;;;7.61;100.00
7962;BME280;4026;43.652;24.906;2024-02-14T08:33:41;99318.41;;;7.67;100.00
7962;BME280;4026;43.652;24.906;2024-02-14T08:36:08;99313.47;;;7.64;100.00
7962;BME280;4026;43.652;24.906;2024-02-14T08:38:35;99323.63;;;7.80;100.00
7962;BME280;4026;43.652;24.906;2024-02-14T08:41:04;99323.31;;;7.70;100.00
7962;BME280;4026;43.652;24.906;2024-02-14T08:43:31;99328.75;;;7.64;100.00
7962;BME280;4026;43.652;24.906;2024-02-14T08:45:59;99329.44;;;7.52;100.00
7962;BME280;4026;43.652;24.906;2024-02-14T08:48:26;99330.47;;;7.33;100.00
7962;BME280;4026;43.652;24.906;2024-02-14T08:50:54;99333.38;;;7.41;100.00
7962;BME280;4026;43.652;24.906;2024-02-14T08:53:21;99329.22;;;7.40;100.00
7962;BME280;4026;43.652;24.906;2024-02-14T08:55:48;99331.94;;;7.37;100.00
7962;BME280;4026;43.652;24.906;2024-02-14T08:58:16;99333.22;;;7.44;100.00
7962;BME280;4026;43.652;24.906;2024-02-14T09:00:43;99333.91;;;7.32;100.00
7962;BME280;4026;43.652;24.906;2024-02-14T09:03:10;99330.22;;;7.22;100.00
7962;BME280;4026;43.652;24.906;2024-02-14T09:05:36;99344.47;;;7.40;100.00
7962;BME280;4026;43.652;24.906;2024-02-14T09:08:04;99344.88;;;7.33;100.00
7962;BME280;4026;43.652;24.906;2024-02-14T09:10:31;99344.72;;;7.36;100.00
7962;BME280;4026;43.652;24.906;2024-02-14T09:12:58;99352.94;;;7.25;100.00
7962;BME280;4026;43.652;24.906;2024-02-14T09:15:28;99352.44;;;7.34;100.00
7962;BME280;4026;43.652;24.906;2024-02-14T09:17:56;99357.88;;;7.28;100.00
7962;BME280;4026;43.652;24.906;2024-02-14T09:20:25;99361.22;;;7.29;100.00
7962;BME280;4026;43.652;24.906;2024-02-14T09:22:52;99367.63;;;7.20;100.00
7962;BME280;4026;43.652;24.906;2024-02-14T09:25:20;99359.75;;;7.40;100.00
7962;BME280;4026;43.652;24.906;2024-02-14T09:27:48;99364.25;;;7.35;100.00
7962;BME280;4026;43.652;24.906;2024-02-14T09:30:15;99359.75;;;7.40;100.00
7962;BME280;4026;43.652;24.906;2024-02-14T09:32:44;99365.72;;;7.55;100.00
7962;BME280;4026;43.652;24.906;2024-02-14T09:35:13;99372.00;;;7.64;100.00
7962;BME280;4026;43.652;24.906;2024-02-14T09:37:40;99369.81;;;7.58;100.00
7962;BME280;4026;43.652;24.906;2024-02-14T09:40:08;99361.19;;;7.60;100.00
7962;BME280;4026;43.652;24.906;2024-02-14T09:42:40;99362.75;;;7.63;100.00
7962;BME280;4026;43.652;24.906;2024-02-14T09:45:10;99368.06;;;7.74;100.00
7962;BME280;4026;43.652;24.906;2024-02-14T09:47:39;99363.78;;;7.75;100.00
7962;BME280;4026;43.652;24.906;2024-02-14T09:50:09;99360.91;;;7.65;100.00
7962;BME280;4026;43.652;24.906;2024-02-14T09:52:37;99362.56;;;7.66;100.00
7962;BME280;4026;43.652;24.906;2024-02-14T09:55:05;99352.41;;;7.66;100.00
7962;BME280;4026;43.652;24.906;2024-02-14T09:57:32;99363.38;;;7.66;100.00
7962;BME280;4026;43.652;24.906;2024-02-14T10:00:00;99356.16;;;7.59;100.00
7962;BME280;4026;43.652;24.906;2024-02-14T10:02:28;99361.09;;;7.62;100.00
7962;BME280;4026;43.652;24.906;2024-02-14T10:04:56;99363.81;;;7.59;100.00
7962;BME280;4026;43.652;24.906;2024-02-14T10:07:24;99364.72;;;7.58;100.00
7962;BME280;4026;43.652;24.906;2024-02-14T10:09:51;99361.09;;;7.62;100.00
7962;BME280;4026;43.652;24.906;2024-02-14T10:12:19;99363.81;;;7.59;100.00
7962;BME280;4026;43.652;24.906;2024-02-14T10:14:45;99350.91;;;7.62;100.00
7962;BME280;4026;43.652;24.906;2024-02-14T10:17:17;99356.34;;;7.56;100.00
7962;BME280;4026;43.652;24.906;2024-02-14T10:19:55;99346.00;;;7.59;100.00
7962;BME280;4026;43.652;24.906;2024-02-14T10:22:21;99353.84;;;7.70;100.00
7962;BME280;4026;43.652;24.906;2024-02-14T10:24:50;99353.16;;;7.82;100.00
7962;BME280;4026;43.652;24.906;2024-02-14T10:27:17;99353.31;;;7.79;100.00
7962;BME280;4026;43.652;24.906;2024-02-14T10:29:44;99347.41;;;7.79;100.00
7962;BME280;4026;43.652;24.906;2024-02-14T10:32:14;99354.63;;;7.86;100.00
7962;BME280;4026;43.652;24.906;2024-02-14T10:34:43;99353.16;;;7.82;100.00
7962;BME280;4026;43.652;24.906;2024-02-14T10:37:13;99351.19;;;7.87;100.00
7962;BME280;4026;43.652;24.906;2024-02-14T10:39:42;99349.03;;;7.96;100.00
7962;BME280;4026;43.652;24.906;2024-02-14T10:42:12;99350.22;;;8.04;100.00
7962;BME280;4026;43.652;24.906;2024-02-14T10:44:39;99343.78;;;8.13;100.00
7962;BME280;4026;43.652;24.906;2024-02-14T10:47:06;99348.53;;;8.33;100.00
7962;BME280;4026;43.652;24.906;2024-02-14T10:49:37;99349.97;;;8.37;100.00
7962;BME280;4026;43.652;24.906;2024-02-14T10:52:07;99351.00;;;8.49;100.00
7962;BME280;4026;43.652;24.906;2024-02-14T10:54:35;99355.66;;;8.57;100.00
7962;BME280;4026;43.652;24.906;2024-02-14T10:57:05;99351.09;;;8.62;100.00
7962;BME280;4026;43.652;24.906;2024-02-14T10:59:41;99357.38;;;8.42;100.00
7962;BME280;4026;43.652;24.906;2024-02-14T11:02:10;99361.84;;;8.38;100.00
7962;BME280;4026;43.652;24.906;2024-02-14T11:04:37;99355.06;;;8.37;100.00
7962;BME280;4026;43.652;24.906;2024-02-14T11:07:10;99352.34;;;8.26;100.00
7962;BME280;4026;43.652;24.906;2024-02-14T11:09:39;99358.63;;;8.21;100.00
7962;BME280;4026;43.652;24.906;2024-02-14T11:12:07;99351.97;;;8.18;100.00
7962;BME280;4026;43.652;24.906;2024-02-14T11:14:36;99358.34;;;8.25;100.00
7962;BME280;4026;43.652;24.906;2024-02-14T11:17:09;99349.53;;;8.31;100.00
7962;BME280;4026;43.652;24.906;2024-02-14T11:19:35;99352.00;;;8.32;100.00
7962;BME280;4026;43.652;24.906;2024-02-14T11:22:12;99347.53;;;8.36;100.00
7962;BME280;4026;43.652;24.906;2024-02-14T11:24:39;99347.59;;;8.34;100.00
7962;BME280;4026;43.652;24.906;2024-02-14T11:27:10;99346.22;;;8.29;100.00
7962;BME280;4026;43.652;24.906;2024-02-14T11:29:39;99348.88;;;8.13;100.00
7962;BME280;4026;43.652;24.906;2024-02-14T11:32:08;99348.84;;;7.99;100.00
7962;BME280;4026;43.652;24.906;2024-02-14T11:34:35;99344.16;;;8.21;100.00
7962;BME280;4026;43.652;24.906;2024-02-14T11:37:02;99344.88;;;8.37;100.00
7962;BME280;4026;43.652;24.906;2024-02-14T11:39:29;99344.38;;;8.47;100.00
7962;BME280;4026;43.652;24.906;2024-02-14T11:41:58;99345.09;;;8.63;100.00
7962;BME280;4026;43.652;24.906;2024-02-14T11:44:25;99341.91;;;8.74;100.00
7962;BME280;4026;43.652;24.906;2024-02-14T11:46:52;99351.66;;;8.67;100.00
7962;BME280;4026;43.652;24.906;2024-02-14T11:49:21;99346.94;;;8.61;100.00
7962;BME280;4026;43.652;24.906;2024-02-14T11:51:48;99352.00;;;8.75;100.00
7962;BME280;4026;43.652;24.906;2024-02-14T11:54:15;99348.13;;;8.70;100.00
7962;BME280;4026;43.652;24.906;2024-02-14T11:56:43;99348.16;;;8.97;100.00
7962;BME280;4026;43.652;24.906;2024-02-14T11:59:10;99354.69;;;9.01;100.00
7962;BME280;4026;43.652;24.906;2024-02-14T12:01:38;99345.13;;;9.04;100.00
7962;BME280;4026;43.652;24.906;2024-02-14T12:04:07;99345.91;;;9.19;100.00
7962;BME280;4026;43.652;24.906;2024-02-14T12:06:40;99342.69;;;9.30;100.00
7962;BME280;4026;43.652;24.906;2024-02-14T12:09:08;99350.34;;;9.30;100.00
7962;BME280;4026;43.652;24.906;2024-02-14T12:11:36;99345.69;;;9.37;100.00
7962;BME280;4026;43.652;24.906;2024-02-14T12:14:04;99352.59;;;9.35;100.00
7962;BME280;4026;43.652;24.906;2024-02-14T12:16:31;99350.44;;;9.28;100.00
7962;BME280;4026;43.652;24.906;2024-02-14T12:19:04;99344.19;;;9.20;100.00
7962;BME280;4026;43.652;24.906;2024-02-14T12:21:36;99348.69;;;9.29;100.00
7962;BME280;4026;43.652;24.906;2024-02-14T12:24:06;99355.44;;;9.57;100.00
7962;BME280;4026;43.652;24.906;2024-02-14T12:26:33;99352.44;;;9.50;100.00
7962;BME280;4026;43.652;24.906;2024-02-14T12:29:02;99353.84;;;9.42;100.00
7962;BME280;4026;43.652;24.906;2024-02-14T12:31:30;99352.16;;;9.55;100.00
7962;BME280;4026;43.652;24.906;2024-02-14T12:33:57;99357.34;;;9.53;100.00
7962;BME280;4026;43.652;24.906;2024-02-14T12:36:25;99358.34;;;9.51;100.00
7962;BME280;4026;43.652;24.906;2024-02-14T12:38:54;99356.34;;;9.56;100.00
7962;BME280;4026;43.652;24.906;2024-02-14T12:41:21;99355.53;;;9.56;100.00
7962;BME280;4026;43.652;24.906;2024-02-14T12:43:49;99358.19;;;9.54;100.00
7962;BME280;4026;43.652;24.906;2024-02-14T12:46:16;99360.84;;;9.52;100.00
7962;BME280;4026;43.652;24.906;2024-02-14T12:48:43;99353.84;;;9.42;100.00
7962;BME280;4026;43.652;24.906;2024-02-14T12:51:10;99361.44;;;9.56;100.00
7962;BME280;4026;43.652;24.906;2024-02-14T12:53:38;99364.53;;;9.61;100.00
7962;BME280;4026;43.652;24.906;2024-02-14T12:56:07;99364.53;;;9.61;100.00
7962;BME280;4026;43.652;24.906;2024-02-14T12:58:34;99355.63;;;9.27;100.00
7962;BME280;4026;43.652;24.906;2024-02-14T13:01:01;99366.94;;;9.50;100.00
7962;BME280;4026;43.652;24.906;2024-02-14T13:03:31;99374.75;;;9.61;100.00
7962;BME280;4026;43.652;24.906;2024-02-14T13:05:59;99373.63;;;9.65;100.00
7962;BME280;4026;43.652;24.906;2024-02-14T13:08:25;99376.69;;;9.70;100.00
7962;BME280;4026;43.652;24.906;2024-02-14T13:10:52;99376.97;;;9.53;100.00